Time;durP1;ratioP1;P1;durP2;ratioP2;P2;SDS_P1;SDS_P2;PMS_P1;PMS_P2;Temp;Humidity;BMP_temperature;BMP_pressure;BME280_temperature;BME280_humidity;BME280_pressure;Samples;Min_cycle;Max_cycle;Signal;HPM_P1;HPM_P2
2022/10/29 00:02:15;;;;;;;9.73;5.13;;;;;;;;;;5123077;28;20195;-67
2022/10/29 00:04:42;;;;;;;10.02;5.10;;;;;;;;;;5123459;28;20202;-67
2022/10/29 00:07:08;;;;;;;8.05;4.88;;;;;;;;;;5123625;28;20199;-67
2022/10/29 00:09:35;;;;;;;8.48;4.90;;;;;;;;;;5122921;28;20210;-67
2022/10/29 00:12:02;;;;;;;8.50;5.35;;;;;;;;;;5122903;28;20201;-67
2022/10/29 00:14:28;;;;;;;10.77;5.55;;;;;;;;;;5123302;28;20203;-67
2022/10/29 00:16:55;;;;;;;12.65;5.25;;;;;;;;;;5123164;28;20227;-67
2022/10/29 00:19:22;;;;;;;16.52;5.85;;;;;;;;;;5122821;28;20495;-67
2022/10/29 00:21:49;;;;;;;9.90;5.25;;;;;;;;;;5122999;28;20195;-67
2022/10/29 00:24:15;;;;;;;12.85;5.13;;;;;;;;;;5122924;28;20202;-67
2022/10/29 00:26:43;;;;;;;15.30;5.28;;;;;;;;;;5122700;28;20198;-67
2022/10/29 00:29:09;;;;;;;10.70;5.10;;;;;;;;;;5122497;28;20215;-67
2022/10/29 00:31:35;;;;;;;7.28;4.70;;;;;;;;;;5122851;28;20394;-67
2022/10/29 00:34:02;;;;;;;12.15;4.20;;;;;;;;;;5122802;28;20195;-67
2022/10/29 00:36:29;;;;;;;8.02;4.45;;;;;;;;;;5122580;28;20218;-67
2022/10/29 00:38:56;;;;;;;13.10;4.78;;;;;;;;;;5121999;28;20211;-67
2022/10/29 00:41:25;;;;;;;11.88;5.38;;;;;;;;;;5122619;28;20240;-67
2022/10/29 00:44:12;;;;;;;12.63;5.03;;;;;;;;;;5122723;28;20474;-67
2022/10/29 00:46:40;;;;;;;9.18;5.00;;;;;;;;;;5122390;28;20191;-67
2022/10/29 00:49:07;;;;;;;9.07;4.72;;;;;;;;;;5122294;28;20201;-67
2022/10/29 00:51:34;;;;;;;10.45;4.90;;;;;;;;;;5122415;28;20232;-67
2022/10/29 00:54:01;;;;;;;13.73;5.00;;;;;;;;;;5122732;28;20501;-67
2022/10/29 00:56:29;;;;;;;13.10;4.43;;;;;;;;;;5122478;28;20219;-67
2022/10/29 00:58:55;;;;;;;9.57;4.35;;;;;;;;;;5122228;28;20202;-67
2022/10/29 01:01:21;;;;;;;7.57;4.28;;;;;;;;;;5122356;28;20229;-67
2022/10/29 01:03:49;;;;;;;10.93;5.30;;;;;;;;;;5122209;28;20202;-68
2022/10/29 01:06:16;;;;;;;13.00;5.10;;;;;;;;;;5122445;28;20198;-67
2022/10/29 01:08:42;;;;;;;11.00;5.20;;;;;;;;;;5122099;28;20203;-67
2022/10/29 01:11:15;;;;;;;13.00;4.93;;;;;;;;;;5122322;28;20199;-67
2022/10/29 01:13:47;;;;;;;14.85;5.40;;;;;;;;;;5124313;28;20203;-67
2022/10/29 01:16:19;;;;;;;13.52;4.65;;;;;;;;;;5126751;28;20468;-67
2022/10/29 01:18:48;;;;;;;14.48;4.97;;;;;;;;;;5126764;28;20216;-67
2022/10/29 01:21:33;;;;;;;12.07;4.97;;;;;;;;;;5126365;28;20198;-67
2022/10/29 01:24:18;;;;;;;4.85;4.22;;;;;;;;;;5126358;28;20199;-67
2022/10/29 01:26:58;;;;;;;7.90;4.57;;;;;;;;;;5126563;28;20346;-67
2022/10/29 01:29:33;;;;;;;12.13;4.60;;;;;;;;;;5125899;28;20593;-67
2022/10/29 01:32:04;;;;;;;6.15;4.28;;;;;;;;;;5126311;28;20494;-67
2022/10/29 01:34:33;;;;;;;12.25;4.43;;;;;;;;;;5126218;28;20502;-67
2022/10/29 01:37:01;;;;;;;12.23;4.38;;;;;;;;;;5126088;28;20219;-67
2022/10/29 01:39:33;;;;;;;11.50;5.10;;;;;;;;;;5125704;28;20210;-67
2022/10/29 01:42:02;;;;;;;14.30;4.82;;;;;;;;;;5126284;28;20483;-67
2022/10/29 01:44:33;;;;;;;12.75;4.80;;;;;;;;;;5125899;28;20202;-67
2022/10/29 01:47:02;;;;;;;7.72;4.63;;;;;;;;;;5125900;28;20191;-67
2022/10/29 01:49:32;;;;;;;8.98;4.15;;;;;;;;;;5125793;27;20503;-67
2022/10/29 01:52:00;;;;;;;8.65;4.97;;;;;;;;;;5125912;28;20195;-67
2022/10/29 01:54:27;;;;;;;7.30;4.65;;;;;;;;;;5125746;28;20203;-67
2022/10/29 01:56:54;;;;;;;9.57;5.20;;;;;;;;;;5125802;28;20237;-67
2022/10/29 01:59:20;;;;;;;12.15;5.35;;;;;;;;;;5125426;28;20195;-67
2022/10/29 02:01:51;;;;;;;8.30;4.93;;;;;;;;;;5125484;28;20537;-67
2022/10/29 02:04:24;;;;;;;13.48;5.45;;;;;;;;;;5125770;28;20195;-67
2022/10/29 02:06:58;;;;;;;8.57;4.80;;;;;;;;;;5125676;28;20191;-67
2022/10/29 02:09:27;;;;;;;13.77;5.00;;;;;;;;;;5125702;28;20414;-67
2022/10/29 02:11:58;;;;;;;9.93;4.82;;;;;;;;;;5125380;28;20206;-67
2022/10/29 02:14:26;;;;;;;9.73;4.60;;;;;;;;;;5125276;28;20209;-67
2022/10/29 02:16:53;;;;;;;11.98;5.13;;;;;;;;;;5125180;28;20231;-67
2022/10/29 02:19:19;;;;;;;7.90;4.50;;;;;;;;;;5125085;28;20195;-67
2022/10/29 02:21:47;;;;;;;10.60;4.88;;;;;;;;;;5125442;28;20195;-67
2022/10/29 02:24:13;;;;;;;11.27;5.40;;;;;;;;;;5125416;28;20202;-67
2022/10/29 02:26:39;;;;;;;7.68;4.53;;;;;;;;;;5125182;28;20397;-67
2022/10/29 02:29:05;;;;;;;12.70;5.60;;;;;;;;;;5124096;28;20215;-67
2022/10/29 02:31:32;;;;;;;9.10;4.78;;;;;;;;;;5125179;28;20218;-67
2022/10/29 02:33:58;;;;;;;9.70;5.20;;;;;;;;;;5125150;28;20202;-67
2022/10/29 02:36:24;;;;;;;8.57;5.55;;;;;;;;;;5124807;28;20507;-67
2022/10/29 02:38:52;;;;;;;8.50;4.50;;;;;;;;;;5124491;28;20211;-67
2022/10/29 02:41:18;;;;;;;10.73;5.13;;;;;;;;;;5124788;28;20187;-67
2022/10/29 02:43:45;;;;;;;8.20;4.45;;;;;;;;;;5124847;28;20225;-67
2022/10/29 02:46:13;;;;;;;12.68;5.05;;;;;;;;;;5124849;28;20197;-67
2022/10/29 02:48:39;;;;;;;6.18;4.50;;;;;;;;;;5124502;27;20195;-67
2022/10/29 02:51:05;;;;;;;10.98;4.53;;;;;;;;;;5124630;28;20210;-67
2022/10/29 02:53:32;;;;;;;8.68;4.70;;;;;;;;;;5124557;28;20195;-67
2022/10/29 02:55:59;;;;;;;8.45;4.65;;;;;;;;;;5124593;28;20221;-67
2022/10/29 02:58:25;;;;;;;9.38;4.90;;;;;;;;;;5124208;27;20215;-67
2022/10/29 03:00:52;;;;;;;11.85;4.80;;;;;;;;;;5124567;28;20201;-67
2022/10/29 03:03:18;;;;;;;8.30;4.97;;;;;;;;;;5124460;28;20203;-67
2022/10/29 03:05:45;;;;;;;5.90;4.47;;;;;;;;;;5124305;28;20367;-67
2022/10/29 03:08:11;;;;;;;10.27;5.45;;;;;;;;;;5124311;28;20427;-67
2022/10/29 03:10:37;;;;;;;8.68;5.50;;;;;;;;;;5124388;28;20195;-67
2022/10/29 03:13:05;;;;;;;9.98;5.35;;;;;;;;;;5124547;28;20194;-67
2022/10/29 03:15:31;;;;;;;8.35;5.28;;;;;;;;;;5124180;27;20202;-67
2022/10/29 03:17:57;;;;;;;7.25;5.20;;;;;;;;;;5123882;28;20222;-67
2022/10/29 03:20:23;;;;;;;7.40;4.97;;;;;;;;;;5123968;28;20394;-67
2022/10/29 03:22:50;;;;;;;14.45;5.00;;;;;;;;;;5124159;28;20195;-67
2022/10/29 03:25:16;;;;;;;9.68;4.82;;;;;;;;;;5124115;28;20202;-67
2022/10/29 03:27:43;;;;;;;15.23;5.25;;;;;;;;;;5123682;28;20407;-67
2022/10/29 03:30:12;;;;;;;10.48;5.25;;;;;;;;;;5123895;27;20203;-67
2022/10/29 03:32:39;;;;;;;13.82;5.30;;;;;;;;;;5123785;28;20203;-67
2022/10/29 03:35:06;;;;;;;10.65;5.55;;;;;;;;;;5123676;28;20777;-67
2022/10/29 03:37:32;;;;;;;7.72;4.93;;;;;;;;;;5123207;28;20568;-67
2022/10/29 03:39:59;;;;;;;9.60;5.22;;;;;;;;;;5123735;28;20206;-67
2022/10/29 03:42:25;;;;;;;14.15;5.00;;;;;;;;;;5123607;28;20266;-67
2022/10/29 03:44:51;;;;;;;11.38;4.70;;;;;;;;;;5123521;28;20199;-67
2022/10/29 03:47:19;;;;;;;13.15;4.72;;;;;;;;;;5123584;28;20386;-67
2022/10/29 03:49:45;;;;;;;10.75;5.05;;;;;;;;;;5123509;28;20502;-67
2022/10/29 03:52:11;;;;;;;5.53;4.88;;;;;;;;;;5123707;28;20217;-67
2022/10/29 03:54:38;;;;;;;6.82;4.40;;;;;;;;;;5123613;28;20371;-67
2022/10/29 03:57:04;;;;;;;8.93;4.32;;;;;;;;;;5123407;28;20215;-67
2022/10/29 03:59:30;;;;;;;13.25;5.88;;;;;;;;;;5123041;28;20201;-67
2022/10/29 04:01:57;;;;;;;9.50;4.85;;;;;;;;;;5123116;28;20202;-67
2022/10/29 04:04:24;;;;;;;20.83;7.18;;;;;;;;;;5123365;28;20203;-67
2022/10/29 04:06:50;;;;;;;10.60;5.50;;;;;;;;;;5123069;28;20198;-67
2022/10/29 04:09:17;;;;;;;9.27;4.95;;;;;;;;;;5123129;28;20510;-67
2022/10/29 04:11:43;;;;;;;8.27;5.20;;;;;;;;;;5123158;28;20195;-67
2022/10/29 04:14:09;;;;;;;15.63;5.03;;;;;;;;;;5123112;28;20214;-67
2022/10/29 04:16:36;;;;;;;10.93;5.28;;;;;;;;;;5122840;28;20522;-67
2022/10/29 04:19:02;;;;;;;12.07;5.05;;;;;;;;;;5122877;28;20267;-67
2022/10/29 04:21:30;;;;;;;10.00;4.90;;;;;;;;;;5123082;28;20195;-67
2022/10/29 04:23:56;;;;;;;11.98;5.35;;;;;;;;;;5122979;28;20507;-67
2022/10/29 04:26:22;;;;;;;11.93;5.28;;;;;;;;;;5123049;28;20191;-67
2022/10/29 04:28:49;;;;;;;12.48;5.25;;;;;;;;;;5122459;28;20221;-67
2022/10/29 04:31:15;;;;;;;11.88;4.60;;;;;;;;;;5122703;28;20199;-67
2022/10/29 04:33:41;;;;;;;9.38;4.63;;;;;;;;;;5122573;27;20191;-67
2022/10/29 04:36:08;;;;;;;17.55;5.78;;;;;;;;;;5122518;28;20187;-67
2022/10/29 04:38:36;;;;;;;9.70;5.07;;;;;;;;;;5122494;28;20520;-67
2022/10/29 04:41:02;;;;;;;9.32;4.70;;;;;;;;;;5122979;28;20403;-67
2022/10/29 04:43:29;;;;;;;11.45;5.45;;;;;;;;;;5122578;28;20205;-67
2022/10/29 04:45:56;;;;;;;10.68;5.50;;;;;;;;;;5122454;28;20194;-67
2022/10/29 04:48:23;;;;;;;10.93;4.97;;;;;;;;;;5121497;28;20399;-67
2022/10/29 04:50:49;;;;;;;13.73;5.47;;;;;;;;;;5122626;28;20201;-67
2022/10/29 04:53:16;;;;;;;10.40;4.82;;;;;;;;;;5122408;28;20229;-67
2022/10/29 04:55:44;;;;;;;15.13;5.38;;;;;;;;;;5122350;28;20222;-67
2022/10/29 04:58:12;;;;;;;8.90;4.88;;;;;;;;;;5122047;28;20222;-67
2022/10/29 05:00:39;;;;;;;7.32;5.03;;;;;;;;;;5122484;28;20218;-67
2022/10/29 05:03:05;;;;;;;11.98;5.35;;;;;;;;;;5122388;28;20195;-67
2022/10/29 05:05:31;;;;;;;13.63;5.18;;;;;;;;;;5122457;28;20221;-67
2022/10/29 05:07:58;;;;;;;9.52;5.07;;;;;;;;;;5122029;28;20218;-67
2022/10/29 05:10:25;;;;;;;15.07;5.47;;;;;;;;;;5122216;28;20206;-67
2022/10/29 05:12:57;;;;;;;8.65;4.72;;;;;;;;;;5122306;28;20210;-67
2022/10/29 05:15:23;;;;;;;12.50;4.97;;;;;;;;;;5122310;28;20202;-67
2022/10/29 05:17:50;;;;;;;12.73;5.43;;;;;;;;;;5122051;28;20214;-67
2022/10/29 05:20:16;;;;;;;14.60;5.10;;;;;;;;;;5122002;28;20195;-67
2022/10/29 05:22:42;;;;;;;14.32;5.80;;;;;;;;;;5122120;28;20406;-67
2022/10/29 05:25:09;;;;;;;13.90;6.30;;;;;;;;;;5122077;28;20201;-67
2022/10/29 05:27:35;;;;;;;13.27;6.93;;;;;;;;;;5121891;28;20530;-67
2022/10/29 05:30:03;;;;;;;12.73;7.78;;;;;;;;;;5122249;28;20216;-67
2022/10/29 05:32:29;;;;;;;17.15;8.88;;;;;;;;;;5122068;28;20195;-67
2022/10/29 05:34:55;;;;;;;16.48;9.05;;;;;;;;;;5122129;28;20194;-67
2022/10/29 05:37:24;;;;;;;23.02;11.02;;;;;;;;;;5121819;28;20207;-67
2022/10/29 05:39:50;;;;;;;18.23;11.77;;;;;;;;;;5121655;28;20199;-67
2022/10/29 05:42:16;;;;;;;17.95;12.05;;;;;;;;;;5122203;28;20202;-69
2022/10/29 05:44:43;;;;;;;21.70;11.77;;;;;;;;;;5122346;28;20203;-69
2022/10/29 05:47:10;;;;;;;17.02;10.98;;;;;;;;;;5122028;28;20191;-69
2022/10/29 05:49:37;;;;;;;18.42;9.82;;;;;;;;;;5121684;28;20202;-69
2022/10/29 05:52:03;;;;;;;9.48;7.45;;;;;;;;;;5121965;28;20551;-69
2022/10/29 05:54:29;;;;;;;8.50;5.88;;;;;;;;;;5121897;28;20199;-69
2022/10/29 05:56:57;;;;;;;8.77;5.93;;;;;;;;;;5121632;28;20219;-69
2022/10/29 05:59:24;;;;;;;11.43;5.78;;;;;;;;;;5123092;28;20503;-69
2022/10/29 06:01:50;;;;;;;10.48;5.97;;;;;;;;;;5125777;28;20525;-69
2022/10/29 06:04:17;;;;;;;10.18;4.88;;;;;;;;;;5125672;28;20398;-69
2022/10/29 06:06:44;;;;;;;8.38;5.38;;;;;;;;;;5125534;28;20206;-69
2022/10/29 06:09:10;;;;;;;8.85;5.30;;;;;;;;;;5125118;28;20203;-69
2022/10/29 06:11:36;;;;;;;8.02;5.80;;;;;;;;;;5125603;28;20199;-69
2022/10/29 06:14:02;;;;;;;8.68;5.22;;;;;;;;;;5125502;28;20202;-69
2022/10/29 06:16:29;;;;;;;9.30;5.10;;;;;;;;;;5125517;28;20202;-69
2022/10/29 06:18:55;;;;;;;10.45;5.75;;;;;;;;;;5125133;28;20223;-69
2022/10/29 06:21:23;;;;;;;16.65;6.47;;;;;;;;;;5125334;27;20195;-69
2022/10/29 06:23:52;;;;;;;8.20;5.60;;;;;;;;;;5125191;28;20206;-69
2022/10/29 06:26:19;;;;;;;8.45;5.80;;;;;;;;;;5125450;28;20498;-69
2022/10/29 06:28:45;;;;;;;11.05;5.72;;;;;;;;;;5124787;28;20227;-69
2022/10/29 06:31:11;;;;;;;11.90;5.63;;;;;;;;;;5125196;28;20199;-69
2022/10/29 06:33:37;;;;;;;17.15;6.00;;;;;;;;;;5125304;28;20201;-69
2022/10/29 06:36:04;;;;;;;14.32;5.85;;;;;;;;;;5125158;28;20195;-69
2022/10/29 06:38:32;;;;;;;6.90;5.57;;;;;;;;;;5124897;28;20215;-69
2022/10/29 06:40:58;;;;;;;15.77;5.70;;;;;;;;;;5125238;28;20291;-69
2022/10/29 06:43:24;;;;;;;11.07;5.72;;;;;;;;;;5125181;28;20200;-69
2022/10/29 06:45:51;;;;;;;8.15;5.30;;;;;;;;;;5125109;28;20201;-69
2022/10/29 06:48:17;;;;;;;9.25;5.03;;;;;;;;;;5124694;28;20191;-69
2022/10/29 06:50:43;;;;;;;8.60;4.93;;;;;;;;;;5124879;28;20391;-69
2022/10/29 06:53:11;;;;;;;10.07;5.28;;;;;;;;;;5124937;28;20195;-69
2022/10/29 06:55:39;;;;;;;7.88;5.53;;;;;;;;;;5124996;28;20195;-69
2022/10/29 06:58:07;;;;;;;8.85;5.30;;;;;;;;;;5124403;28;20229;-69
2022/10/29 07:00:34;;;;;;;9.20;4.85;;;;;;;;;;5124746;28;20195;-69
2022/10/29 07:03:00;;;;;;;8.77;5.57;;;;;;;;;;5124693;28;20194;-69
2022/10/29 07:05:26;;;;;;;7.80;4.80;;;;;;;;;;5124555;28;20207;-69
2022/10/29 07:07:54;;;;;;;9.75;5.32;;;;;;;;;;5124541;27;20187;-69
2022/10/29 07:10:20;;;;;;;11.18;5.00;;;;;;;;;;5123986;28;20202;-69
2022/10/29 07:12:48;;;;;;;11.77;5.22;;;;;;;;;;5124290;28;20203;-69
2022/10/29 07:15:14;;;;;;;11.50;5.40;;;;;;;;;;5124422;28;20202;-69
2022/10/29 07:17:41;;;;;;;9.57;5.40;;;;;;;;;;5124085;28;20489;-69
2022/10/29 07:20:08;;;;;;;15.30;6.22;;;;;;;;;;5124209;28;20426;-69
2022/10/29 07:22:34;;;;;;;15.05;6.80;;;;;;;;;;5124219;28;20195;-69
2022/10/29 07:25:00;;;;;;;12.02;5.97;;;;;;;;;;5124376;28;20195;-69
2022/10/29 07:27:27;;;;;;;10.82;5.60;;;;;;;;;;5124150;28;20215;-69
2022/10/29 07:29:54;;;;;;;15.75;6.07;;;;;;;;;;5123912;28;20195;-70
2022/10/29 07:32:22;;;;;;;7.60;5.65;;;;;;;;;;5123749;28;20266;-69
2022/10/29 07:34:48;;;;;;;12.07;5.97;;;;;;;;;;5109255;28;20208;-70
2022/10/29 07:37:14;;;;;;;9.60;6.03;;;;;;;;;;5114587;28;20210;-68
2022/10/29 07:39:41;;;;;;;12.18;5.80;;;;;;;;;;5118115;28;20214;-70
2022/10/29 07:42:07;;;;;;;11.00;5.82;;;;;;;;;;5118499;28;20213;-69
2022/10/29 07:44:36;;;;;;;14.07;6.95;;;;;;;;;;5118724;28;20218;-70
2022/10/29 07:47:04;;;;;;;10.93;6.35;;;;;;;;;;5118426;28;20238;-69
2022/10/29 07:49:30;;;;;;;12.45;6.22;;;;;;;;;;5118329;28;20213;-70
2022/10/29 07:51:57;;;;;;;10.88;6.85;;;;;;;;;;5118328;28;20550;-71
2022/10/29 07:54:30;;;;;;;11.02;6.55;;;;;;;;;;5118201;28;20402;-70
2022/10/29 07:56:56;;;;;;;10.23;5.70;;;;;;;;;;5118229;28;20213;-69
2022/10/29 07:59:22;;;;;;;13.50;6.20;;;;;;;;;;5117793;28;20215;-69
2022/10/29 08:01:48;;;;;;;12.13;6.90;;;;;;;;;;5117938;28;20207;-69
2022/10/29 08:04:16;;;;;;;17.00;9.10;;;;;;;;;;5117718;28;20221;-68
2022/10/29 08:06:42;;;;;;;19.65;8.40;;;;;;;;;;5117658;28;20206;-68
2022/10/29 08:09:10;;;;;;;18.15;8.38;;;;;;;;;;5117576;27;20435;-68
2022/10/29 08:11:36;;;;;;;12.75;7.28;;;;;;;;;;5117653;28;20207;-68
2022/10/29 08:14:02;;;;;;;18.00;8.50;;;;;;;;;;5117324;28;20831;-69
2022/10/29 08:16:29;;;;;;;16.95;7.35;;;;;;;;;;5116314;28;20218;-69
2022/10/29 08:18:55;;;;;;;14.07;7.13;;;;;;;;;;5117391;28;20218;-69
2022/10/29 08:21:23;;;;;;;20.83;7.65;;;;;;;;;;5117470;28;20535;-69
2022/10/29 08:23:50;;;;;;;19.23;8.52;;;;;;;;;;5116943;28;20199;-69
2022/10/29 08:26:16;;;;;;;20.83;7.78;;;;;;;;;;5117107;28;20274;-69
2022/10/29 08:28:43;;;;;;;28.25;8.20;;;;;;;;;;5116889;28;20382;-69
2022/10/29 08:31:09;;;;;;;18.70;8.23;;;;;;;;;;5117000;28;20238;-69
2022/10/29 08:33:36;;;;;;;18.48;6.88;;;;;;;;;;5116960;28;20217;-69
2022/10/29 08:36:02;;;;;;;14.27;6.68;;;;;;;;;;5116813;28;20203;-69
2022/10/29 08:38:29;;;;;;;19.85;6.97;;;;;;;;;;5117109;28;20225;-70
2022/10/29 08:41:10;;;;;;;12.27;6.15;;;;;;;;;;5117533;28;20528;-70
2022/10/29 08:43:55;;;;;;;14.10;7.35;;;;;;;;;;5117120;28;20207;-70
2022/10/29 08:46:23;;;;;;;15.65;6.65;;;;;;;;;;5099600;28;20206;-70
2022/10/29 08:48:52;;;;;;;17.77;6.65;;;;;;;;;;5101923;28;20208;-70
2022/10/29 08:51:22;;;;;;;11.93;5.32;;;;;;;;;;5102076;28;20202;-70
2022/10/29 08:53:51;;;;;;;12.43;6.55;;;;;;;;;;5102104;28;20203;-70
2022/10/29 08:56:19;;;;;;;14.40;6.18;;;;;;;;;;5102294;28;20199;-70
2022/10/29 08:58:50;;;;;;;16.42;7.20;;;;;;;;;;5101810;28;20227;-70
2022/10/29 09:01:18;;;;;;;10.65;6.20;;;;;;;;;;5101949;28;20199;-69
2022/10/29 09:03:44;;;;;;;15.68;6.45;;;;;;;;;;5101994;28;20200;-69
2022/10/29 09:06:12;;;;;;;17.60;6.78;;;;;;;;;;5102371;28;20213;-69
2022/10/29 09:08:43;;;;;;;17.80;7.10;;;;;;;;;;5101880;28;20202;-69
2022/10/29 09:11:17;;;;;;;16.50;7.00;;;;;;;;;;5081949;28;20197;-69
2022/10/29 09:13:47;;;;;;;16.38;6.50;;;;;;;;;;5081833;28;20200;-69
2022/10/29 09:16:20;;;;;;;16.30;6.88;;;;;;;;;;5081767;28;20203;-69
2022/10/29 09:18:49;;;;;;;15.05;5.90;;;;;;;;;;5081403;28;20506;-70
2022/10/29 09:21:22;;;;;;;10.05;5.80;;;;;;;;;;5082198;28;20198;-69
2022/10/29 09:23:53;;;;;;;18.73;5.75;;;;;;;;;;5081879;28;20203;-69
2022/10/29 09:26:25;;;;;;;11.13;5.47;;;;;;;;;;5081814;28;20197;-69
2022/10/29 09:28:59;;;;;;;14.95;5.70;;;;;;;;;;5081518;28;20220;-69
2022/10/29 09:31:28;;;;;;;11.15;5.55;;;;;;;;;;5081855;28;20184;-69
2022/10/29 09:33:58;;;;;;;7.40;4.15;;;;;;;;;;5082410;28;20196;-69
2022/10/29 09:36:24;;;;;;;9.88;4.63;;;;;;;;;;5086000;28;20389;-69
2022/10/29 09:38:54;;;;;;;12.68;5.32;;;;;;;;;;5085408;28;20216;-69
2022/10/29 09:41:25;;;;;;;11.80;5.03;;;;;;;;;;5085672;28;20204;-69
2022/10/29 09:43:54;;;;;;;11.75;5.53;;;;;;;;;;5085491;28;20226;-69
2022/10/29 09:46:25;;;;;;;12.10;5.72;;;;;;;;;;5085652;28;20210;-69
2022/10/29 09:48:56;;;;;;;15.50;5.70;;;;;;;;;;5085322;28;20199;-69
2022/10/29 09:51:26;;;;;;;14.52;5.45;;;;;;;;;;5085535;28;20196;-69
2022/10/29 09:53:52;;;;;;;11.95;5.57;;;;;;;;;;5085379;28;20203;-69
2022/10/29 09:56:18;;;;;;;13.90;5.28;;;;;;;;;;5085208;28;20202;-69
2022/10/29 09:58:49;;;;;;;12.60;4.90;;;;;;;;;;5085230;28;20554;-69
2022/10/29 10:01:15;;;;;;;16.65;5.13;;;;;;;;;;5085436;28;20390;-69
2022/10/29 10:03:44;;;;;;;7.15;4.32;;;;;;;;;;5084979;28;20200;-57
2022/10/29 10:06:11;;;;;;;16.45;4.60;;;;;;;;;;5085013;28;20231;-59
2022/10/29 10:08:58;;;;;;;13.23;4.80;;;;;;;;;;5084653;28;20193;-59
2022/10/29 10:11:24;;;;;;;10.70;5.00;;;;;;;;;;5085094;28;20307;-59
2022/10/29 10:13:53;;;;;;;11.93;4.65;;;;;;;;;;5085025;28;20196;-59
2022/10/29 10:16:23;;;;;;;16.92;4.78;;;;;;;;;;5085126;28;20388;-60
2022/10/29 10:18:50;;;;;;;23.15;4.95;;;;;;;;;;5084580;28;20239;-59
2022/10/29 10:21:24;;;;;;;15.00;5.00;;;;;;;;;;5084681;28;20196;-59
2022/10/29 10:23:51;;;;;;;14.90;5.18;;;;;;;;;;5085182;28;20199;-59
2022/10/29 10:26:28;;;;;;;12.75;5.82;;;;;;;;;;5084853;28;20242;-59
2022/10/29 10:29:04;;;;;;;7.18;4.90;;;;;;;;;;5084459;28;20243;-59
2022/10/29 10:31:31;;;;;;;14.25;5.07;;;;;;;;;;5083615;28;20392;-59
2022/10/29 10:33:57;;;;;;;8.85;4.50;;;;;;;;;;5084231;28;20203;-60
2022/10/29 10:36:24;;;;;;;11.57;4.40;;;;;;;;;;5084257;28;20196;-60
2022/10/29 10:38:51;;;;;;;9.10;4.35;;;;;;;;;;5083625;28;20262;-60
2022/10/29 10:41:22;;;;;;;10.60;4.75;;;;;;;;;;5084253;28;20196;-60
2022/10/29 10:43:49;;;;;;;10.13;5.10;;;;;;;;;;5084034;28;20201;-60
2022/10/29 10:46:21;;;;;;;12.18;4.18;;;;;;;;;;5082417;28;20514;-59
2022/10/29 10:48:56;;;;;;;8.60;4.45;;;;;;;;;;5083780;28;20199;-59
2022/10/29 10:51:24;;;;;;;12.57;4.45;;;;;;;;;;5083990;28;20199;-60
2022/10/29 10:53:50;;;;;;;8.10;4.22;;;;;;;;;;5083773;28;20196;-60
2022/10/29 10:56:18;;;;;;;10.77;4.20;;;;;;;;;;5083776;28;20204;-60
2022/10/29 10:58:47;;;;;;;16.05;4.25;;;;;;;;;;5083412;28;20217;-60
2022/10/29 11:01:17;;;;;;;12.13;3.65;;;;;;;;;;5083965;28;20192;-59
2022/10/29 11:03:46;;;;;;;11.63;3.83;;;;;;;;;;5083794;28;20365;-59
2022/10/29 11:06:14;;;;;;;12.35;3.92;;;;;;;;;;5084047;28;20367;-61
2022/10/29 11:08:43;;;;;;;10.02;3.67;;;;;;;;;;5083538;28;20205;-59
2022/10/29 11:11:12;;;;;;;6.10;3.60;;;;;;;;;;5083457;28;20218;-59
2022/10/29 11:13:39;;;;;;;9.73;3.97;;;;;;;;;;5083448;28;20204;-59
2022/10/29 11:16:11;;;;;;;15.82;4.82;;;;;;;;;;5083387;28;20198;-57
2022/10/29 11:18:39;;;;;;;11.80;3.97;;;;;;;;;;5083177;28;20238;-58
2022/10/29 11:21:10;;;;;;;10.13;3.97;;;;;;;;;;5083412;28;20204;-56
2022/10/29 11:23:42;;;;;;;11.77;4.20;;;;;;;;;;5082746;28;20430;-69
2022/10/29 11:26:11;;;;;;;8.20;3.78;;;;;;;;;;5083263;28;20274;-69
2022/10/29 11:28:38;;;;;;;8.55;3.92;;;;;;;;;;5082936;28;20219;-69
2022/10/29 11:31:10;;;;;;;13.65;4.07;;;;;;;;;;5083229;28;20208;-69
2022/10/29 11:33:41;;;;;;;11.43;4.30;;;;;;;;;;5083379;28;20195;-71
2022/10/29 11:36:12;;;;;;;12.73;4.55;;;;;;;;;;5083493;28;20196;-71
2022/10/29 11:38:40;;;;;;;12.32;4.22;;;;;;;;;;5083094;28;20227;-71
2022/10/29 11:41:13;;;;;;;11.15;4.20;;;;;;;;;;5083613;28;20441;-72
2022/10/29 11:43:39;;;;;;;17.77;4.38;;;;;;;;;;5083343;28;20204;-71
2022/10/29 11:46:07;;;;;;;8.57;3.53;;;;;;;;;;5083282;28;20202;-72
2022/10/29 11:48:40;;;;;;;10.05;4.03;;;;;;;;;;5083039;28;20221;-72
2022/10/29 11:51:15;;;;;;;8.18;3.63;;;;;;;;;;5083148;28;20196;-73
2022/10/29 11:53:53;;;;;;;11.18;4.38;;;;;;;;;;5083088;28;20237;-69
2022/10/29 11:56:23;;;;;;;15.27;4.32;;;;;;;;;;5082834;28;20220;-71
2022/10/29 11:58:53;;;;;;;16.88;4.13;;;;;;;;;;5083055;28;20227;-70
2022/10/29 12:01:24;;;;;;;17.52;5.30;;;;;;;;;;5082840;28;20437;-70
2022/10/29 12:04:09;;;;;;;15.70;4.40;;;;;;;;;;5083205;28;20218;-70
2022/10/29 12:06:39;;;;;;;13.30;3.63;;;;;;;;;;5082669;28;20425;-70
2022/10/29 12:09:14;;;;;;;20.42;5.30;;;;;;;;;;5082639;28;20428;-70
2022/10/29 12:11:44;;;;;;;12.55;4.40;;;;;;;;;;5082638;28;20400;-70
2022/10/29 12:14:18;;;;;;;12.27;4.47;;;;;;;;;;5082794;28;20504;-70
2022/10/29 12:16:49;;;;;;;15.00;6.63;;;;;;;;;;5082728;28;20498;-70
2022/10/29 12:19:23;;;;;;;9.40;4.63;;;;;;;;;;5082358;28;20216;-70
2022/10/29 12:21:53;;;;;;;11.70;4.32;;;;;;;;;;5082573;28;20196;-71
2022/10/29 12:24:26;;;;;;;17.20;5.97;;;;;;;;;;5082859;28;20196;-71
2022/10/29 12:26:55;;;;;;;11.63;4.57;;;;;;;;;;5082672;28;20196;-70
2022/10/29 12:29:23;;;;;;;10.38;4.72;;;;;;;;;;5082207;28;20531;-71
2022/10/29 12:31:54;;;;;;;17.05;5.55;;;;;;;;;;5082501;28;20200;-70
2022/10/29 12:34:25;;;;;;;19.15;4.55;;;;;;;;;;5082730;28;20211;-70
2022/10/29 12:36:54;;;;;;;19.23;5.57;;;;;;;;;;5082667;28;20218;-71
2022/10/29 12:39:27;;;;;;;12.25;4.75;;;;;;;;;;5081834;28;20220;-70
2022/10/29 12:41:57;;;;;;;12.50;4.25;;;;;;;;;;5082496;28;20202;-70
2022/10/29 12:44:26;;;;;;;14.38;4.65;;;;;;;;;;5081423;28;20525;-70
2022/10/29 12:46:54;;;;;;;10.32;3.85;;;;;;;;;;5082158;28;20203;-71
2022/10/29 12:49:24;;;;;;;15.50;4.78;;;;;;;;;;5081990;28;20196;-70
2022/10/29 12:51:53;;;;;;;13.00;4.85;;;;;;;;;;5082705;28;20536;-70
2022/10/29 12:54:28;;;;;;;10.68;4.15;;;;;;;;;;5083876;28;20196;-70
2022/10/29 12:56:55;;;;;;;11.25;4.53;;;;;;;;;;5082189;28;20226;-69
2022/10/29 12:59:28;;;;;;;8.88;4.63;;;;;;;;;;5082104;28;20228;-69
2022/10/29 13:01:55;;;;;;;12.90;4.90;;;;;;;;;;5081967;28;20203;-69
2022/10/29 13:04:30;;;;;;;13.45;4.38;;;;;;;;;;5082086;28;20196;-69
2022/10/29 13:06:59;;;;;;;14.55;5.47;;;;;;;;;;5082054;28;20396;-69
2022/10/29 13:09:27;;;;;;;11.13;4.10;;;;;;;;;;5081308;28;20483;-69
2022/10/29 13:11:54;;;;;;;11.65;4.47;;;;;;;;;;5081858;28;20203;-69
2022/10/29 13:14:23;;;;;;;16.70;4.50;;;;;;;;;;5082081;28;20196;-71
2022/10/29 13:16:51;;;;;;;9.52;4.07;;;;;;;;;;5082002;28;20196;-71
2022/10/29 13:19:22;;;;;;;11.70;4.28;;;;;;;;;;5081708;28;20216;-71
2022/10/29 13:21:55;;;;;;;9.45;3.85;;;;;;;;;;5082309;28;20290;-71
2022/10/29 13:24:21;;;;;;;13.60;4.63;;;;;;;;;;5082231;28;20200;-71
2022/10/29 13:26:54;;;;;;;15.40;4.85;;;;;;;;;;5082026;28;20221;-71
2022/10/29 13:29:35;;;;;;;10.25;4.45;;;;;;;;;;5081775;28;20219;-71
2022/10/29 13:32:01;;;;;;;19.02;5.05;;;;;;;;;;5081750;28;20410;-71
2022/10/29 13:34:47;;;;;;;14.35;4.28;;;;;;;;;;5081833;28;20196;-71
2022/10/29 13:37:32;;;;;;;13.57;4.35;;;;;;;;;;5081521;28;20565;-71
2022/10/29 13:40:16;;;;;;;11.48;4.50;;;;;;;;;;5081640;28;20228;-71
2022/10/29 13:42:45;;;;;;;11.75;3.78;;;;;;;;;;5081824;28;20202;-71
2022/10/29 13:45:11;;;;;;;12.50;4.15;;;;;;;;;;5081649;28;20525;-71
2022/10/29 13:47:39;;;;;;;12.05;4.30;;;;;;;;;;5081730;28;20211;-70
2022/10/29 13:50:06;;;;;;;15.40;4.40;;;;;;;;;;5082143;28;20199;-70
2022/10/29 13:52:37;;;;;;;14.10;4.30;;;;;;;;;;5082228;28;20406;-70
2022/10/29 13:55:05;;;;;;;8.70;3.58;;;;;;;;;;5082128;28;20196;-70
2022/10/29 13:57:33;;;;;;;12.02;3.88;;;;;;;;;;5081815;28;20200;-70
2022/10/29 14:00:04;;;;;;;14.35;4.38;;;;;;;;;;5081552;28;20216;-70
2022/10/29 14:02:35;;;;;;;10.93;4.15;;;;;;;;;;5082116;28;20196;-70
2022/10/29 14:05:05;;;;;;;21.42;4.95;;;;;;;;;;5082008;28;20450;-70
2022/10/29 14:07:35;;;;;;;16.25;4.80;;;;;;;;;;5081871;28;20495;-70
2022/10/29 14:10:06;;;;;;;9.52;5.07;;;;;;;;;;5081822;28;20192;-70
2022/10/29 14:12:32;;;;;;;15.07;5.88;;;;;;;;;;5081578;28;20246;-70
2022/10/29 14:15:02;;;;;;;13.70;5.70;;;;;;;;;;5081780;28;20205;-71
2022/10/29 14:17:30;;;;;;;15.20;5.82;;;;;;;;;;5081805;28;20672;-71
2022/10/29 14:19:56;;;;;;;16.05;6.35;;;;;;;;;;5081581;28;20215;-71
2022/10/29 14:22:28;;;;;;;13.63;6.40;;;;;;;;;;5085187;28;20552;-71
2022/10/29 14:24:54;;;;;;;20.90;6.40;;;;;;;;;;5085219;28;20196;-71
2022/10/29 14:27:20;;;;;;;22.60;6.55;;;;;;;;;;5085360;28;20202;-71
2022/10/29 14:29:47;;;;;;;10.98;5.93;;;;;;;;;;5084916;28;20215;-71
2022/10/29 14:32:17;;;;;;;15.25;6.43;;;;;;;;;;5085112;28;20199;-71
2022/10/29 14:34:45;;;;;;;11.27;6.38;;;;;;;;;;5084921;28;20211;-71
2022/10/29 14:37:14;;;;;;;14.30;6.75;;;;;;;;;;5084855;28;20196;-71
2022/10/29 14:39:43;;;;;;;18.88;7.05;;;;;;;;;;5084776;28;20566;-71
2022/10/29 14:42:15;;;;;;;14.48;6.47;;;;;;;;;;5084907;28;20196;-71